createdAt,value
2022-08-24T00:03:47.222Z,78.2
2022-08-24T00:09:22.097Z,78.4
2022-08-24T00:14:57.234Z,78.5
2022-08-24T00:20:31.906Z,78.6
2022-08-24T00:26:08.056Z,78.7
2022-08-24T00:31:44.072Z,78.9
2022-08-24T00:37:19.680Z,78.9
2022-08-24T00:43:18.784Z,78.9
2022-08-24T00:48:52.359Z,79.1
2022-08-24T00:54:28.078Z,79.2
2022-08-24T01:00:03.827Z,79.2
2022-08-24T01:05:38.716Z,79.3
2022-08-24T01:11:22.566Z,79.4
2022-08-24T01:16:57.681Z,79.5
2022-08-24T01:22:33.370Z,79.5
2022-08-24T01:28:08.219Z,79.6
2022-08-24T01:33:42.814Z,79.7
2022-08-24T01:39:17.717Z,79.7
2022-08-24T01:45:14.308Z,79.7
2022-08-24T01:50:47.098Z,79.9
2022-08-24T01:56:21.884Z,79.9
2022-08-24T02:01:59.900Z,80
2022-08-24T02:07:35.237Z,79.9
2022-08-24T02:13:10.003Z,80.2
2022-08-24T02:18:44.939Z,80.2
2022-08-24T02:24:19.650Z,80.4
2022-08-24T02:29:54.412Z,80.4
2022-08-24T02:35:29.498Z,80.5
2022-08-24T02:41:04.045Z,80.5
2022-08-24T02:46:39.341Z,80.6
2022-08-24T02:52:14.710Z,80.7
2022-08-24T02:57:49.567Z,80.8
2022-08-24T03:03:24.323Z,80.9
2022-08-24T03:09:04.097Z,80.9
2022-08-24T03:14:38.915Z,81
2022-08-24T03:20:13.722Z,81
2022-08-24T03:25:48.418Z,81.1
2022-08-24T03:31:44.008Z,81
2022-08-24T03:37:18.666Z,81
2022-08-24T03:43:16.059Z,80.8
2022-08-24T03:48:48.733Z,80.9
2022-08-24T03:54:23.429Z,81
2022-08-24T04:00:01.349Z,81
2022-08-24T04:05:37.116Z,81
2022-08-24T04:11:14.900Z,81
2022-08-24T04:16:58.175Z,80.9
2022-08-24T04:22:33.795Z,80.9
2022-08-24T04:28:16.588Z,80.9
2022-08-24T04:33:54.528Z,81.1
2022-08-24T04:39:30.310Z,81.1
2022-08-24T04:45:27.482Z,81.1
2022-08-24T04:51:00.656Z,81.4
2022-08-24T04:56:35.182Z,81.4
2022-08-24T05:02:10.436Z,81.5
2022-08-24T05:07:46.085Z,81.6
2022-08-24T05:13:22.365Z,81.7
2022-08-24T05:18:57.033Z,81.8
2022-08-24T05:24:31.725Z,81.8
2022-08-24T05:30:13.450Z,81.9
2022-08-24T05:35:48.180Z,82
2022-08-24T05:41:23.226Z,81.9
2022-08-24T05:46:58.490Z,81.8
2022-08-24T05:52:35.194Z,81.4
2022-08-24T05:58:18.522Z,83.4
2022-08-24T06:04:06.566Z,85.2
2022-08-24T06:09:42.296Z,85.4
2022-08-24T06:15:17.133Z,86.1
2022-08-24T06:20:58.025Z,86.5
2022-08-24T06:26:32.937Z,86.4
2022-08-24T06:32:08.723Z,85.9
2022-08-24T06:37:44.808Z,86
2022-08-24T06:43:43.118Z,85.8
2022-08-24T06:49:15.731Z,86
2022-08-24T06:54:50.650Z,85.6
2022-08-24T07:00:25.590Z,86.3
2022-08-24T07:06:00.616Z,85.2
2022-08-24T07:11:35.440Z,84.7
2022-08-24T07:17:11.674Z,83.9
2022-08-24T07:22:52.035Z,82.9
2022-08-24T07:28:32.289Z,83.2
2022-08-24T07:34:07.570Z,82.6
2022-08-24T07:39:42.900Z,82.1
2022-08-24T07:45:18.384Z,82
2022-08-24T07:50:53.069Z,82.9
2022-08-24T07:56:27.931Z,83.6
2022-08-24T08:02:10.823Z,83.7
2022-08-24T08:07:52.734Z,83.6
2022-08-24T08:13:27.837Z,83.4
2022-08-24T08:19:12.041Z,83.2
2022-08-24T08:24:47.250Z,83
2022-08-24T08:30:23.053Z,83
2022-08-24T08:35:58.117Z,83.1
2022-08-24T08:41:33.830Z,83
2022-08-24T08:47:14.970Z,83
2022-08-24T08:52:49.743Z,82.9
2022-08-24T08:58:30.367Z,82.8
2022-08-24T09:04:05.203Z,82.7
2022-08-24T09:09:41.153Z,82.3
2022-08-24T09:15:16.132Z,82
2022-08-24T09:20:51.227Z,81.8
2022-08-24T09:26:26.083Z,81.6
2022-08-24T09:32:01.168Z,81.4
2022-08-24T09:37:41.679Z,80.7
2022-08-24T09:43:40.640Z,80.2
2022-08-24T09:49:14.676Z,80.1
2022-08-24T09:54:49.433Z,79.8
2022-08-24T10:00:57.271Z,79.3
2022-08-24T10:06:35.965Z,79.1
2022-08-24T10:12:11.514Z,78.9
2022-08-24T10:17:46.859Z,78.5
2022-08-24T10:23:24.989Z,78.3
2022-08-24T10:28:59.904Z,78.2
2022-08-24T10:34:34.506Z,77.6
2022-08-24T10:40:09.861Z,77.1
2022-08-24T10:45:48.413Z,76.9
2022-08-24T10:51:26.806Z,76.3
2022-08-24T10:57:01.718Z,75.6
2022-08-24T11:02:36.987Z,75.5
2022-08-24T11:08:12.797Z,74.9
2022-08-24T11:13:48.731Z,74.3
2022-08-24T11:19:23.363Z,73.8
2022-08-24T11:24:58.170Z,73.5
2022-08-24T11:30:34.177Z,72.8
2022-08-24T11:36:11.875Z,72.7
2022-08-24T11:42:20.221Z,72.6
2022-08-24T11:48:05.651Z,72.4
2022-08-24T11:53:48.665Z,72.4
2022-08-24T11:59:24.957Z,72.2
2022-08-24T12:04:59.811Z,71.4
2022-08-24T12:10:43.410Z,71.5
2022-08-24T12:16:21.301Z,71.1
2022-08-24T12:21:57.862Z,70.9
2022-08-24T12:27:32.803Z,69.9
2022-08-24T12:33:07.685Z,69.4
2022-08-24T12:38:44.177Z,69
2022-08-24T12:44:20.086Z,67.8
2022-08-24T12:49:54.774Z,66.6
2022-08-24T12:55:30.068Z,66.4
2022-08-24T13:01:10.618Z,65.3
2022-08-24T13:06:46.971Z,63.5
2022-08-24T13:12:28.255Z,62.7
2022-08-24T13:18:08.447Z,62.5
2022-08-24T13:23:47.320Z,61.8
2022-08-24T13:29:22.348Z,60.8
2022-08-24T13:34:57.400Z,60.1
2022-08-24T13:40:32.718Z,59.1
2022-08-24T13:46:13.708Z,57.4
2022-08-24T13:51:51.451Z,57.7
2022-08-24T13:57:26.483Z,56
2022-08-24T14:03:02.387Z,55.3
2022-08-24T14:08:39.839Z,56.4
2022-08-24T14:14:14.713Z,57.1
2022-08-24T14:19:58.753Z,57
2022-08-24T14:25:33.525Z,57.2
2022-08-24T14:31:08.512Z,57.2
2022-08-24T14:36:44.147Z,57.7
2022-08-24T14:42:40.717Z,57.5
2022-08-24T14:48:14.641Z,58.2
2022-08-24T14:53:50.448Z,59
2022-08-24T14:59:25.598Z,59.2
2022-08-24T15:05:00.894Z,59.3
2022-08-24T15:10:37.523Z,58.8
2022-08-24T15:16:12.695Z,59.1
2022-08-24T15:21:48.435Z,58.6
2022-08-24T15:27:23.664Z,58
2022-08-24T15:32:58.149Z,58.2
2022-08-24T15:38:33.000Z,58.2
2022-08-24T15:44:29.765Z,58.1
2022-08-24T15:50:02.704Z,58.3
2022-08-24T15:55:38.699Z,58.9
2022-08-24T16:01:14.773Z,59.1
2022-08-24T16:06:51.284Z,59.3
2022-08-24T16:12:32.819Z,59.8
2022-08-24T16:18:08.763Z,60.2
2022-08-24T16:23:44.477Z,60.5
2022-08-24T16:29:23.232Z,60.8
2022-08-24T16:35:07.496Z,60.8
2022-08-24T16:41:09.622Z,60.9
2022-08-24T16:46:49.096Z,61.1
2022-08-24T16:52:25.498Z,61.2
2022-08-24T16:58:01.520Z,61.3
2022-08-24T17:03:38.314Z,61.3
2022-08-24T17:09:13.669Z,61.4
2022-08-24T17:14:48.468Z,61.3
2022-08-24T17:20:23.366Z,61
2022-08-24T17:25:58.224Z,61
2022-08-24T17:31:33.616Z,61.1
2022-08-24T17:37:09.434Z,61
2022-08-24T17:42:52.175Z,61.2
2022-08-24T17:48:27.171Z,61.5
2022-08-24T17:54:01.937Z,61.7
2022-08-24T17:59:36.672Z,61.9
2022-08-24T18:05:11.645Z,62.1
2022-08-24T18:10:48.269Z,62.3
2022-08-24T18:16:23.191Z,62.6
2022-08-24T18:21:58.851Z,62.8
2022-08-24T18:27:34.058Z,63.2
2022-08-24T18:33:14.463Z,63.6
2022-08-24T18:38:49.386Z,63.9
2022-08-24T18:44:52.788Z,64
2022-08-24T18:50:26.465Z,64.2
2022-08-24T18:56:12.373Z,64.5
2022-08-24T19:01:49.350Z,64.7
2022-08-24T19:07:29.240Z,64.9
2022-08-24T19:13:11.773Z,65.2
2022-08-24T19:18:46.756Z,65.5
2022-08-24T19:24:23.946Z,65.8
2022-08-24T19:29:59.043Z,66.4
2022-08-24T19:35:34.722Z,66.9
2022-08-24T19:41:12.946Z,67.3
2022-08-24T19:46:56.412Z,67.8
2022-08-24T19:52:32.138Z,68.3
2022-08-24T19:58:07.190Z,68.4
2022-08-24T20:03:42.406Z,68.3
2022-08-24T20:09:23.612Z,68.4
2022-08-24T20:15:19.985Z,68.8
2022-08-24T20:21:16.576Z,69.1
2022-08-24T20:26:51.505Z,69.2
2022-08-24T20:32:26.330Z,69.2
2022-08-24T20:38:01.950Z,69.2
2022-08-24T20:43:58.505Z,69
2022-08-24T20:49:31.236Z,69.1
2022-08-24T20:55:06.154Z,69.2
2022-08-24T21:00:41.500Z,69.4
2022-08-24T21:06:25.405Z,69.7
2022-08-24T21:12:00.572Z,69.9
2022-08-24T21:17:35.518Z,70.5
2022-08-24T21:23:10.484Z,70.8
2022-08-24T21:28:48.558Z,70.9
2022-08-24T21:34:25.003Z,71.6
2022-08-24T21:40:03.878Z,71.6
2022-08-24T21:45:39.482Z,71.7
2022-08-24T21:51:14.267Z,72.1
2022-08-24T21:56:49.537Z,72.4
2022-08-24T22:02:24.815Z,72.7
2022-08-24T22:08:00.779Z,73.1
2022-08-24T22:13:35.940Z,73.8
2022-08-24T22:19:15.548Z,74.7
2022-08-24T22:24:50.678Z,75.3
2022-08-24T22:30:25.725Z,75.6
2022-08-24T22:36:00.802Z,76.2
2022-08-24T22:41:57.418Z,76.4
2022-08-24T22:47:30.217Z,76.4
2022-08-24T22:53:05.713Z,76.4
2022-08-24T22:58:42.625Z,76.5
2022-08-24T23:04:18.677Z,76.6
2022-08-24T23:09:53.958Z,76.7
2022-08-24T23:15:30.181Z,76.8
2022-08-24T23:21:05.516Z,76.9
2022-08-24T23:26:40.409Z,76.9
2022-08-24T23:32:18.425Z,77
2022-08-24T23:37:54.427Z,77.2
2022-08-24T23:43:50.969Z,77.3
2022-08-24T23:49:23.967Z,77.3
2022-08-24T23:55:22.088Z,77.4
